1868 NOT_NAMED (1868032S17081)


IBTrACS version v04r00. Visit IBTrACS website for data access.
Please direct all questions to the IBTrACS Q and A forum

Storm track - Intensity - Wind Radii - Intensity Data - Source Data - All data

Summary Information

Storm ID 1868032S17081
Start Feb 1 06Z
End Feb 9 06Z
ATCF IDs
Track status Best track data.
Spur track This storm is a spur track associated with the main storm: 1868032S17081

Storm track plot

Map of storm track

Intensity plots

No Intensity information for this storm


Radial wind information

No radial wind information for this storm


Position and Intensity Table

BASIN ISO_TIME_________ NATURE LAT LON
degrees north degrees east
SI 1868-02-01 06:00:00 NR -17.30 80.60
SI 09:00:00 NR -17.38 80.43
SI 12:00:00 NR -17.47 80.25
SI 15:00:00 NR -17.56 80.06
SI 18:00:00 NR -17.66 79.86
SI 21:00:00 NR -17.77 79.63
SI 1868-02-02 00:00:00 NR -17.90 79.39
SI 03:00:00 NR -18.04 79.11
SI 06:00:00 NR -18.20 78.80
SI 09:00:00 NR -18.38 78.45
SI 12:00:00 NR -18.59 78.07
SI 15:00:00 NR -18.81 77.65
SI 18:00:00 NR -19.06 77.19
SI 21:00:00 NR -19.32 76.71
SI 1868-02-03 00:00:00 NR -19.60 76.20
SI 03:00:00 NR -19.89 75.66
SI 06:00:00 NR -20.20 75.10
SI 09:00:00 NR -20.51 74.52
SI 12:00:00 NR -20.84 73.91
SI 15:00:00 NR -21.19 73.27
SI 18:00:00 NR -21.54 72.62
SI 21:00:00 NR -21.90 71.96
SI 1868-02-04 00:00:00 NR -22.27 71.30
SI 03:00:00 NR -22.64 70.64
SI 06:00:00 NR -23.00 70.00
SI 09:00:00 NR -23.37 69.36
SI 12:00:00 NR -23.75 68.72
SI 15:00:00 NR -24.13 68.10
SI 18:00:00 NR -24.50 67.50
SI 21:00:00 NR -24.86 66.92
SI 1868-02-05 00:00:00 NR -25.19 66.37
SI 03:00:00 NR -25.51 65.86
SI 06:00:00 NR -25.80 65.40
SI 09:00:00 NR -26.04 65.01
SI 12:00:00 NR -26.25 64.66
SI 15:00:00 NR -26.44 64.36
SI 18:00:00 NR -26.62 64.09
SI 21:00:00 NR -26.79 63.84
SI 1868-02-06 00:00:00 NR -26.95 63.60
SI 03:00:00 NR -27.12 63.35
SI 06:00:00 NR -27.30 63.10
SI 09:00:00 NR -27.48 62.81
SI 12:00:00 NR -27.66 62.52
SI 15:00:00 NR -27.85 62.22
SI 18:00:00 NR -28.05 61.92
SI 21:00:00 NR -28.28 61.59
SI 1868-02-07 00:00:00 NR -28.52 61.25
SI 03:00:00 NR -28.79 60.89
SI 06:00:00 NR -29.10 60.50
SI 09:00:00 NR -29.50 60.02
SI 12:00:00 NR -29.93 59.50
SI 15:00:00 NR -30.39 58.96
SI 18:00:00 NR -30.85 58.42
SI 21:00:00 NR -31.31 57.88
SI 1868-02-08 00:00:00 NR -31.75 57.37
SI 03:00:00 NR -32.15 56.90
SI 06:00:00 NR -32.50 56.50
SI 09:00:00 NR -32.79 56.17
SI 12:00:00 NR -33.02 55.91
SI 15:00:00 NR -33.21 55.72
SI 18:00:00 NR -33.35 55.57
SI 21:00:00 NR -33.47 55.47
SI 1868-02-09 00:00:00 NR -33.56 55.39
SI 03:00:00 NR -33.63 55.34
SI 06:00:00 NR -33.70 55.30

Source Information

Agency Information
USA
TOKYO
CMA
HKO
NEWDELHI
REUNION WMO-Best-Tracks.txt:Line=738:xxxx868109
BOM
NADI
WELLINGTON
DS824
TD9636
TD9635
NEUMANN
MLC

All available IBTrACS Data

SEASON BASIN SUBBASIN ISO_TIME_________ NATURE LAT LON WMO AGENCY DIST2LAND LANDFALL IFLAG USA SSHS REUNION LAT REUNION LON REUNION TYPE REUNION TNUM STORM SPEED STORM DIR
Year degrees north degrees east km km 1 degrees north degrees east 1 kts degrees
1868 SI MM 1868-02-01 06:00:00 NR -17.30 80.60 2421 2398 _____O________ -1 -17.30 80.60 99 9.90 4 243
1868 SI MM 09:00:00 NR -17.38 80.43 2398 2385 _____P________ -1 -17.38 80.43 99 4 243
1868 SI MM 12:00:00 NR -17.47 80.25 2375 2362 _____P________ -1 -17.47 80.25 99 4 243
1868 SI MM 15:00:00 NR -17.56 80.06 2362 2339 _____P________ -1 -17.56 80.06 99 4 243
1868 SI MM 18:00:00 NR -17.66 79.86 2339 2306 _____P________ -1 -17.66 79.86 99 5 242
1868 SI MM 21:00:00 NR -17.77 79.63 2306 2283 _____P________ -1 -17.77 79.63 99 5 242
1868 SI MM 1868-02-02 00:00:00 NR -17.90 79.39 2283 2250 _____P________ -1 -17.90 79.39 99 6 242
1868 SI MM 03:00:00 NR -18.04 79.11 2250 2215 _____P________ -1 -18.04 79.11 99 6 241
1868 SI MM 06:00:00 NR -18.20 78.80 reunion 2215 2180 _____O________ -1 -18.20 78.80 99 9.90 7 241
1868 SI MM 09:00:00 NR -18.38 78.45 2180 2135 _____P________ -1 -18.38 78.45 99 8 241
1868 SI MM 12:00:00 NR -18.59 78.07 2135 2090 _____P________ -1 -18.59 78.07 99 9 241
1868 SI MM 15:00:00 NR -18.81 77.65 2080 2035 _____P________ -1 -18.81 77.65 99 10 240
1868 SI MM 18:00:00 NR -19.06 77.19 2034 1979 _____P________ -1 -19.06 77.19 99 10 240
1868 SI MM 21:00:00 NR -19.32 76.71 1979 1923 _____P________ -1 -19.32 76.71 99 11 240
1868 SI MM 1868-02-03 00:00:00 NR -19.60 76.20 1923 1868 _____P________ -1 -19.60 76.20 99 11 240
1868 SI MM 03:00:00 NR -19.89 75.66 1868 1803 _____P________ -1 -19.89 75.66 99 12 240
1868 SI MM 06:00:00 NR -20.20 75.10 reunion 1803 1750 _____O________ -1 -20.20 75.10 99 9.90 12 240
1868 SI MM 09:00:00 NR -20.51 74.52 1739 1676 _____P________ -1 -20.51 74.52 99 13 240
1868 SI MM 12:00:00 NR -20.84 73.91 1676 1613 _____P________ -1 -20.84 73.91 99 14 240
1868 SI MM 15:00:00 NR -21.19 73.27 1613 1552 _____P________ -1 -21.19 73.27 99 14 240
1868 SI MM 18:00:00 NR -21.54 72.62 1542 1483 _____P________ -1 -21.54 72.62 99 14 240
1868 SI MM 21:00:00 NR -21.90 71.96 1483 1414 _____P________ -1 -21.90 71.96 99 14 239
1868 SI MM 1868-02-04 00:00:00 NR -22.27 71.30 1415 1358 _____P________ -1 -22.27 71.30 99 14 239
1868 SI MM 03:00:00 NR -22.64 70.64 1348 1295 _____P________ -1 -22.64 70.64 99 14 239
1868 SI MM 06:00:00 NR -23.00 70.00 reunion 1295 1242 _____O________ -1 -23.00 70.00 99 9.90 14 238
1868 SI MM 09:00:00 NR -23.37 69.36 1245 1195 _____P________ -1 -23.37 69.36 99 14 237
1868 SI MM 12:00:00 NR -23.75 68.72 1188 1141 _____P________ -1 -23.75 68.72 99 14 237
1868 SI MM 15:00:00 NR -24.13 68.10 1141 1100 _____P________ -1 -24.13 68.10 99 13 236
1868 SI MM 18:00:00 NR -24.50 67.50 1100 1058 _____P________ -1 -24.50 67.50 99 13 236
1868 SI MM 21:00:00 NR -24.86 66.92 1063 1034 _____P________ -1 -24.86 66.92 99 12 236
1868 SI MM 1868-02-05 00:00:00 NR -25.19 66.37 1034 1007 _____P________ -1 -25.19 66.37 99 12 236
1868 SI MM 03:00:00 NR -25.51 65.86 1007 984 _____P________ -1 -25.51 65.86 99 11 235
1868 SI MM 06:00:00 NR -25.80 65.40 reunion 984 965 _____O________ -1 -25.80 65.40 99 9.90 9 236
1868 SI MM 09:00:00 NR -26.04 65.01 965 956 _____P________ -1 -26.04 65.01 99 8 236
1868 SI MM 12:00:00 NR -26.25 64.66 963 948 _____P________ -1 -26.25 64.66 99 7 235
1868 SI MM 15:00:00 NR -26.44 64.36 949 942 _____P________ -1 -26.44 64.36 99 6 234
1868 SI MM 18:00:00 NR -26.62 64.09 943 936 _____P________ -1 -26.62 64.09 99 6 234
1868 SI MM 21:00:00 NR -26.79 63.84 938 933 _____P________ -1 -26.79 63.84 99 6 233
1868 SI MM 1868-02-06 00:00:00 NR -26.95 63.60 941 935 _____P________ -1 -26.95 63.60 99 5 232
1868 SI MM 03:00:00 NR -27.12 63.35 937 931 _____P________ -1 -27.12 63.35 99 6 232
1868 SI MM 06:00:00 NR -27.30 63.10 reunion 936 931 _____O________ -1 -27.30 63.10 99 9.90 6 233
1868 SI MM 09:00:00 NR -27.48 62.81 937 932 _____P________ -1 -27.48 62.81 99 6 235
1868 SI MM 12:00:00 NR -27.66 62.52 940 934 _____P________ -1 -27.66 62.52 99 6 234
1868 SI MM 15:00:00 NR -27.85 62.22 944 939 _____P________ -1 -27.85 62.22 99 7 234
1868 SI MM 18:00:00 NR -28.05 61.92 949 945 _____P________ -1 -28.05 61.92 99 7 233
1868 SI MM 21:00:00 NR -28.28 61.59 956 952 _____P________ -1 -28.28 61.59 99 7 231
1868 SI MM 1868-02-07 00:00:00 NR -28.52 61.25 965 961 _____P________ -1 -28.52 61.25 99 8 230
1868 SI MM 03:00:00 NR -28.79 60.89 981 977 _____P________ -1 -28.79 60.89 99 9 229
1868 SI MM 06:00:00 NR -29.10 60.50 reunion 990 990 _____O________ -1 -29.10 60.50 99 9.90 10 227
1868 SI MM 09:00:00 NR -29.50 60.02 1006 1006 _____P________ -1 -29.50 60.02 99 12 226
1868 SI MM 12:00:00 NR -29.93 59.50 1026 1026 _____P________ -1 -29.93 59.50 99 13 226
1868 SI MM 15:00:00 NR -30.39 58.96 1061 1057 _____P________ -1 -30.39 58.96 99 13 225
1868 SI MM 18:00:00 NR -30.85 58.42 1097 1094 _____P________ -1 -30.85 58.42 99 13 225
1868 SI MM 21:00:00 NR -31.31 57.88 1129 1129 _____P________ -1 -31.31 57.88 99 13 225
1868 SI MM 1868-02-08 00:00:00 NR -31.75 57.37 1164 1164 _____P________ -1 -31.75 57.37 99 12 225
1868 SI MM 03:00:00 NR -32.15 56.90 1201 1201 _____P________ -1 -32.15 56.90 99 11 224
1868 SI MM 06:00:00 NR -32.50 56.50 reunion 1238 1231 _____O________ -1 -32.50 56.50 99 9.90 9 224
1868 SI MM 09:00:00 NR -32.79 56.17 1239 1232 _____P________ -1 -32.79 56.17 99 7 223
1868 SI MM 12:00:00 NR -33.02 55.91 1233 1233 _____P________ -1 -33.02 55.91 99 6 222
1868 SI MM 15:00:00 NR -33.21 55.72 1235 1235 _____P________ -1 -33.21 55.72 99 4 221
1868 SI MM 18:00:00 NR -33.35 55.57 1244 1238 _____P________ -1 -33.35 55.57 99 3 219
1868 SI MM 21:00:00 NR -33.47 55.47 1246 1240 _____P________ -1 -33.47 55.47 99 3 216
1868 SI MM 1868-02-09 00:00:00 NR -33.56 55.39 1248 1242 _____P________ -1 -33.56 55.39 99 2 213
1868 SI MM 03:00:00 NR -33.63 55.34 1242 1242 _____P________ -1 -33.63 55.34 99 2 209
1868 SI MM 06:00:00 NR -33.70 55.30 reunion 1250 _____O________ -1 -33.70 55.30 99 9.90 2 212